Map

Track Data

SID SEASON NUMBER BASIN SUBBASIN NAME ISO_TIME NATURE LAT LON WMO_WIND WMO_PRES WMO_AGENCY TRACK_TYPE DIST2LAND LANDFALL IFLAG USA_AGENCY USA_ATCF_ID USA_LAT USA_LON USA_RECORD USA_STATUS USA_WIND USA_PRES USA_SSHS USA_R34_NE USA_R34_SE USA_R34_SW USA_R34_NW USA_R50_NE USA_R50_SE USA_R50_SW USA_R50_NW USA_R64_NE USA_R64_SE USA_R64_SW USA_R64_NW USA_POCI USA_ROCI USA_RMW USA_EYE TOKYO_LAT TOKYO_LON TOKYO_GRADE TOKYO_WIND TOKYO_PRES TOKYO_R50_DIR TOKYO_R50_LONG TOKYO_R50_SHORT TOKYO_R30_DIR TOKYO_R30_LONG TOKYO_R30_SHORT TOKYO_LAND CMA_LAT CMA_LON CMA_CAT CMA_WIND CMA_PRES HKO_LAT HKO_LON HKO_CAT HKO_WIND HKO_PRES NEWDELHI_LAT NEWDELHI_LON NEWDELHI_GRADE NEWDELHI_WIND NEWDELHI_PRES NEWDELHI_CI NEWDELHI_DP NEWDELHI_POCI REUNION_LAT REUNION_LON REUNION_TYPE REUNION_WIND REUNION_PRES REUNION_TNUM REUNION_CI REUNION_RMW REUNION_R34_NE REUNION_R34_SE REUNION_R34_SW REUNION_R34_NW REUNION_R50_NE REUNION_R50_SE REUNION_R50_SW REUNION_R50_NW REUNION_R64_NE REUNION_R64_SE REUNION_R64_SW REUNION_R64_NW BOM_LAT BOM_LON BOM_TYPE BOM_WIND BOM_PRES BOM_TNUM BOM_CI BOM_RMW BOM_R34_NE BOM_R34_SE BOM_R34_SW BOM_R34_NW BOM_R50_NE BOM_R50_SE BOM_R50_SW BOM_R50_NW BOM_R64_NE BOM_R64_SE BOM_R64_SW BOM_R64_NW BOM_ROCI BOM_POCI BOM_EYE BOM_POS_METHOD BOM_PRES_METHOD NADI_LAT NADI_LON NADI_CAT NADI_WIND NADI_PRES WELLINGTON_LAT WELLINGTON_LON WELLINGTON_WIND WELLINGTON_PRES DS824_LAT DS824_LON DS824_STAGE DS824_WIND DS824_PRES TD9636_LAT TD9636_LON TD9636_STAGE TD9636_WIND TD9636_PRES TD9635_LAT TD9635_LON TD9635_WIND TD9635_PRES TD9635_ROCI NEUMANN_LAT NEUMANN_LON NEUMANN_CLASS NEUMANN_WIND NEUMANN_PRES MLC_LAT MLC_LON MLC_CLASS MLC_WIND MLC_PRES USA_GUST BOM_GUST BOM_GUST_PER REUNION_GUST REUNION_GUST_PER USA_SEAHGT USA_SEARAD_NE USA_SEARAD_SE USA_SEARAD_SW USA_SEARAD_NW STORM_SPEED STORM_DIR
1870101S07108 1870 8 SI WA NOT_NAMED 1870-04-11 06:00:00 NR -6.50000 107.900 main 0 0 _____O________ -1 -6.50000 107.900 99 9.90000 5 240
1870101S07108 1870 8 SI WA NOT_NAMED 1870-04-11 09:00:00 NR -6.62612 107.682 main 0 0 _____P________ -1 -6.62612 107.682 99 5 240
1870101S07108 1870 8 SI WA NOT_NAMED 1870-04-11 12:00:00 NR -6.75327 107.463 main 0 0 _____P________ -1 -6.75327 107.463 99 5 240
1870101S07108 1870 8 SI WA NOT_NAMED 1870-04-11 15:00:00 NR -6.88257 107.239 main 0 0 _____P________ -1 -6.88257 107.239 99 5 240
1870101S07108 1870 8 SI WA NOT_NAMED 1870-04-11 18:00:00 NR -7.01511 107.010 main 0 0 _____P________ -1 -7.01511 107.010 99 5 240
1870101S07108 1870 8 SI WA NOT_NAMED 1870-04-11 21:00:00 NR -7.15202 106.774 main 0 0 _____P________ -1 -7.15202 106.774 99 6 240
1870101S07108 1870 8 SI WA NOT_NAMED 1870-04-12 00:00:00 NR -7.29441 106.528 main 0 0 _____P________ -1 -7.29441 106.528 99 6 240
1870101S07108 1870 8 SI WA NOT_NAMED 1870-04-12 03:00:00 NR -7.44337 106.270 main 11 11 _____P________ -1 -7.44337 106.270 99 6 240
1870101S07108 1870 8 SI WA NOT_NAMED 1870-04-12 06:00:00 NR -7.60000 106.000 main 49 49 _____O________ -1 -7.60000 106.000 99 9.90000 6 240
1870101S07108 1870 8 SI WA NOT_NAMED 1870-04-12 09:00:00 NR -7.76509 105.715 main 89 89 _____P________ -1 -7.76509 105.715 99 7 240
1870101S07108 1870 8 SI WA NOT_NAMED 1870-04-12 12:00:00 NR -7.93816 105.418 main 123 123 _____P________ -1 -7.93816 105.418 99 7 239
1870101S07108 1870 8 SI WA NOT_NAMED 1870-04-12 15:00:00 NR -8.11840 105.110 main 146 146 _____P________ -1 -8.11840 105.110 99 7 239
1870101S07108 1870 8 SI WA NOT_NAMED 1870-04-12 18:00:00 NR -8.30503 104.795 main 173 173 _____P________ -1 -8.30503 104.795 99 7 239
1870101S07108 1870 8 SI WA NOT_NAMED 1870-04-12 21:00:00 NR -8.49728 104.473 main 205 205 _____P________ -1 -8.49728 104.473 99 8 239
1870101S07108 1870 8 SI WA NOT_NAMED 1870-04-13 00:00:00 NR -8.69436 104.149 main 245 245 _____P________ -1 -8.69436 104.149 99 8 238
1870101S07108 1870 8 SI WA NOT_NAMED 1870-04-13 03:00:00 NR -8.89552 103.824 main 281 281 _____P________ -1 -8.89552 103.824 99 8 238
1870101S07108 1870 8 SI WA NOT_NAMED 1870-04-13 06:00:00 NR -9.10000 103.500 main 318 318 _____O________ -1 -9.10000 103.500 99 9.90000 8 239
1870101S07108 1870 8 SI WA NOT_NAMED 1870-04-13 09:00:00 NR -9.29374 103.163 main 356 356 _____P________ -1 -9.29374 103.163 99 8 240
1870101S07108 1870 8 SI WA NOT_NAMED 1870-04-13 12:00:00 NR -9.49057 102.822 main 401 401 _____P________ -1 -9.49057 102.822 99 8 239
1870101S07108 1870 8 SI WA NOT_NAMED 1870-04-13 15:00:00 NR -9.69160 102.484 main 440 440 _____P________ -1 -9.69160 102.484 99 8 238
1870101S07108 1870 8 SI WA NOT_NAMED 1870-04-13 18:00:00 NR -9.89797 102.153 main 479 479 _____P________ -1 -9.89797 102.153 99 8 237
1870101S07108 1870 8 SI WA NOT_NAMED 1870-04-13 21:00:00 NR -10.1108 101.834 main 526 526 _____P________ -1 -10.1108 101.834 99 8 235
1870101S07108 1870 8 SI WA NOT_NAMED 1870-04-14 00:00:00 NR -10.3313 101.532 main 565 565 _____P________ -1 -10.3313 101.532 99 7 232
1870101S07108 1870 8 SI WA NOT_NAMED 1870-04-14 03:00:00 NR -10.5606 101.252 main 604 604 _____P________ -1 -10.5606 101.252 99 7 228
1870101S07108 1870 8 SI WA NOT_NAMED 1870-04-14 06:00:00 NR -10.8000 101.000 main 643 643 _____O________ -1 -10.8000 101.000 99 9.90000 7 225
1870101S07108 1870 8 SI WA NOT_NAMED 1870-04-14 09:00:00 NR -11.0515 100.755 main 682 682 _____P________ -1 -11.0515 100.755 99 7 222
1870101S07108 1870 8 SI WA NOT_NAMED 1870-04-14 12:00:00 NR -11.3136 100.534 main 721 721 _____P________ -1 -11.3136 100.534 99 7 217
1870101S07108 1870 8 SI WA NOT_NAMED 1870-04-14 15:00:00 NR -11.5844 100.338 main 760 760 _____P________ -1 -11.5844 100.338 99 7 213
1870101S07108 1870 8 SI WA NOT_NAMED 1870-04-14 18:00:00 NR -11.8619 100.168 main 792 792 _____P________ -1 -11.8619 100.168 99 6 208
1870101S07108 1870 8 SI WA NOT_NAMED 1870-04-14 21:00:00 NR -12.1442 100.028 main 823 823 _____P________ -1 -12.1442 100.028 99 6 203
1870101S07108 1870 8 SI WA NOT_NAMED 1870-04-15 00:00:00 NR -12.4293 99.9186 main 855 855 _____P________ -1 -12.4293 99.9186 99 6 197
1870101S07108 1870 8 SI WA NOT_NAMED 1870-04-15 03:00:00 NR -12.7152 99.8419 main 887 887 _____P________ -1 -12.7152 99.8419 99 6 192
1870101S07108 1870 8 SI WA NOT_NAMED 1870-04-15 06:00:00 NR -13.0000 99.8000 main 912 912 _____O________ -1 -13.0000 99.8000 99 9.90000 6 186
1870101S07108 1870 8 SI WA NOT_NAMED 1870-04-15 09:00:00 NR -13.2920 99.7830 main 937 937 _____P________ -1 -13.2920 99.7830 99 6 177
1870101S07108 1870 8 SI WA NOT_NAMED 1870-04-15 12:00:00 NR -13.5863 99.8033 main 964 964 _____P________ -1 -13.5863 99.8033 99 6 174
1870101S07108 1870 8 SI WA NOT_NAMED 1870-04-15 15:00:00 NR -13.8792 99.8552 main 984 984 _____P________ -1 -13.8792 99.8552 99 6 168
1870101S07108 1870 8 SI WA NOT_NAMED 1870-04-15 18:00:00 NR -14.1672 99.9336 main 1011 1005 _____P________ -1 -14.1672 99.9336 99 6 163
1870101S07108 1870 8 SI WA NOT_NAMED 1870-04-15 21:00:00 NR -14.4468 100.033 main 1023 1023 _____P________ -1 -14.4468 100.033 99 6 160
1870101S07108 1870 8 SI WA NOT_NAMED 1870-04-16 00:00:00 NR -14.7145 100.147 main 1045 1039 _____P________ -1 -14.7145 100.147 99 6 156
1870101S07108 1870 8 SI WA NOT_NAMED 1870-04-16 03:00:00 NR -14.9668 100.272 main 1062 1062 _____P________ -1 -14.9668 100.272 99 5 153
1870101S07108 1870 8 SI WA NOT_NAMED 1870-04-16 06:00:00 NR -15.2000 100.400 main 1076 1076 _____O________ -1 -15.2000 100.400 99 9.90000 5 153
1870101S07108 1870 8 SI WA NOT_NAMED 1870-04-16 09:00:00 NR -15.4043 100.503 main 1091 1091 _____P________ -1 -15.4043 100.503 99 4 152
1870101S07108 1870 8 SI WA NOT_NAMED 1870-04-16 12:00:00 NR -15.5896 100.613 main 1105 1100 _____P________ -1 -15.5896 100.613 99 4 148
1870101S07108 1870 8 SI WA NOT_NAMED 1870-04-16 15:00:00 NR -15.7595 100.731 main 1120 1116 _____P________ -1 -15.7595 100.731 99 4 144
1870101S07108 1870 8 SI WA NOT_NAMED 1870-04-16 18:00:00 NR -15.9174 100.856 main 1121 1121 _____P________ -1 -15.9174 100.856 99 4 142
1870101S07108 1870 8 SI WA NOT_NAMED 1870-04-16 21:00:00 NR -16.0669 100.985 main 1137 1132 _____P________ -1 -16.0669 100.985 99 4 139
1870101S07108 1870 8 SI WA NOT_NAMED 1870-04-17 00:00:00 NR -16.2115 101.120 main 1141 1136 _____P________ -1 -16.2115 101.120 99 4 138
1870101S07108 1870 8 SI WA NOT_NAMED 1870-04-17 03:00:00 NR -16.3547 101.258 main 1150 1150 _____P________ -1 -16.3547 101.258 99 4 137
1870101S07108 1870 8 SI WA NOT_NAMED 1870-04-17 06:00:00 NR -16.5000 101.400 main 1154 1154 _____O________ -1 -16.5000 101.400 99 9.90000 4 139
1870101S07108 1870 8 SI WA NOT_NAMED 1870-04-17 09:00:00 NR -16.6624 101.537 main 1169 1164 _____P________ -1 -16.6624 101.537 99 4 141
1870101S07108 1870 8 SI WA NOT_NAMED 1870-04-17 12:00:00 NR -16.8249 101.678 main 1169 1169 _____P________ -1 -16.8249 101.678 99 4 140
1870101S07108 1870 8 SI WA NOT_NAMED 1870-04-17 15:00:00 NR -16.9873 101.822 main 1185 1180 _____P________ -1 -16.9873 101.822 99 4 139
1870101S07108 1870 8 SI WA NOT_NAMED 1870-04-17 18:00:00 NR -17.1498 101.970 main 1186 1186 _____P________ -1 -17.1498 101.970 99 4 139
1870101S07108 1870 8 SI WA NOT_NAMED 1870-04-17 21:00:00 NR -17.3123 102.122 main 1202 1198 _____P________ -1 -17.3123 102.122 99 4 138
1870101S07108 1870 8 SI WA NOT_NAMED 1870-04-18 00:00:00 NR -17.4748 102.278 main 1215 1215 _____P________ -1 -17.4748 102.278 99 4 137
1870101S07108 1870 8 SI WA NOT_NAMED 1870-04-18 03:00:00 NR -17.6374 102.437 main 1221 1221 _____P________ -1 -17.6374 102.437 99 4 137
1870101S07108 1870 8 SI WA NOT_NAMED 1870-04-18 06:00:00 NR -17.8000 102.600 main 1235 1235 _____O________ -1 -17.8000 102.600 99 9.90000 5 136
1870101S07108 1870 8 SI WA NOT_NAMED 1870-04-18 09:00:00 NR -17.9626 102.766 main 1237 1223 _____P________ -1 -17.9626 102.766 99 5 135
1870101S07108 1870 8 SI WA NOT_NAMED 1870-04-18 12:00:00 NR -18.1253 102.936 main 1223 1194 _____P________ -1 -18.1253 102.936 99 5 135
1870101S07108 1870 8 SI WA NOT_NAMED 1870-04-18 15:00:00 NR -18.2880 103.109 main 1194 1170 _____P________ -1 -18.2880 103.109 99 5 134
1870101S07108 1870 8 SI WA NOT_NAMED 1870-04-18 18:00:00 NR -18.4506 103.284 main 1165 1141 _____P________ -1 -18.4506 103.284 99 5 134
1870101S07108 1870 8 SI WA NOT_NAMED 1870-04-18 21:00:00 NR -18.6131 103.461 main 1141 1123 _____P________ -1 -18.6131 103.461 99 5 134
1870101S07108 1870 8 SI WA NOT_NAMED 1870-04-19 00:00:00 NR -18.7755 103.640 main 1123 1099 _____P________ -1 -18.7755 103.640 99 5 134
1870101S07108 1870 8 SI WA NOT_NAMED 1870-04-19 03:00:00 NR -18.9379 103.819 main 1099 1071 _____P________ -1 -18.9379 103.819 99 5 134
1870101S07108 1870 8 SI WA NOT_NAMED 1870-04-19 06:00:00 NR -19.1000 104.000 main 1071 _____O________ -1 -19.1000 104.000 99 9.90000 5 133

About IBTrACS Database

This database is a web-friendly format of International Best Track Archive for Climate Stewardship (IBTrACS), a global best track data archive curated by NOAA dating back to 1842.

Updated: 2021-10-27